Airfield :
LOGIN :

Register | Disclaimer

   EN    FR    IT 

 










Legend :    VFR   Marginal VFR   IFR   Intensive IFR   Very Intensive IFR
Visi :
Ceiling :
>= 8 km
>= 3000ft
5 to 8 km
1000 to 3000 ft
1500m to 5 km
500 to 1000 ft
800 to 1500m
200 to 500 ft
< 800m
< 200 ft
Symbols :   Thunderstorms  Fog  Heavy snow  Heavy precipitations  Wind > 20 kt
SIGMETs :     Misc.  Thunderstorms  Icing  Turbulence  Mountain Waves  Volcanic Ashes






- Airport Elevation : 162 ft
- IATA code : BOD


LFBD - Bordeaux / Merignac

CURRENT METAR :
  • 270430Z AUTO 20013KT 9000 RA OVC007/// ///TCU 09/09 Q1010 TEMPO 24020G30KT 2000 RA BECMG BKN010 BKN020

EXPIRED METARs :
  • 270400Z AUTO 19013KT 7000 RA BKN007 OVC012 09/08 Q1011 TEMPO 24020G30KT 2000 RA BECMG BKN010 BKN020
  • 270330Z AUTO 19011KT 9000 RA BKN006 OVC010 09/08 Q1012 TEMPO 24020G30KT 2000 RA BECMG BKN010 BKN020
  • 270300Z AUTO 18010KT 9999 -RA BKN005 OVC035 08/08 Q1012 TEMPO 24020G30KT 2000 RA BECMG BKN010 BKN020
  • 270230Z AUTO 19009KT 9999 -RA SCT005/// BKN009/// BKN020/// ///TCU 08/08 Q1013 TEMPO 24020G30KT 2000 RA BECMG BKN010 BKN020
  • 270200Z AUTO 19009KT 5000 RA BR FEW010 SCT015 BKN020 08/07 Q1014 TEMPO 2000 RA OVC005

TAF AMD TAF LFBD
Valid from the 27 at 04:00 until the 28 at 06:00 UTC


270424Z 2704/2806 22010KT 9999 BKN010 BKN020 TX13/2715Z TN07/2724Z
PROB40 2704/2706 2000 RA OVC005
PROB40 2704/2714 24020G30KT 2000 RA
BECMG 2710/2712 28020G35KT
PROB40
TEMPO 2714/2716 SHRA
BECMG 2716/2718 30010KT
BECMG 2720/2722 22005KT
TEMPO 2800/2806 2000 -DZ BKN005
ATIS : +33 5 57 92 81 04



MET'MAP, your aeronautical weather chart ! - Copyright ORBIFLY December 2007 - Disclaimer

ORBIFLY MET'MAP TEAM :

Programming & Development : Alexandra Zaïnal
Concept & original design : Baudouin d'Aumeries
Assistance for programming : Marc-Olivier Méhu
Technical & hardware support : Manuel Goepfert

Contact : metmap@orbifly.com




SOURCES & CREDITS :

   NOAA